Time;durP1;ratioP1;P1;durP2;ratioP2;P2;SDS_P1;SDS_P2;PMS_P1;PMS_P2;Temp;Humidity;BMP_temperature;BMP_pressure;BME280_temperature;BME280_humidity;BME280_pressure;Samples;Min_cycle;Max_cycle;Signal;HPM_P1;HPM_P2
2023/04/03 00:02:02;;;;;;;;;;;1.80;99.90;;;;;;5093803;28;20409;-75
2023/04/03 00:04:29;;;;;;;;;;;1.80;99.90;;;;;;5088718;28;19930;-75
2023/04/03 00:06:56;;;;;;;;;;;1.80;99.90;;;;;;5089587;28;20349;-75
2023/04/03 00:09:23;;;;;;;;;;;1.70;99.90;;;;;;5085526;28;19964;-75
2023/04/03 00:11:49;;;;;;;;;;;1.60;99.90;;;;;;5087470;28;19925;-77
2023/04/03 00:14:17;;;;;;;;;;;1.50;99.90;;;;;;5100122;28;19930;-73
2023/04/03 00:16:44;;;;;;;;;;;1.60;99.90;;;;;;5092776;28;19928;-74
2023/04/03 00:19:12;;;;;;;;;;;1.60;99.90;;;;;;5102927;28;19923;-76
2023/04/03 00:21:39;;;;;;;;;;;1.60;99.90;;;;;;5088013;28;19974;-75
2023/04/03 00:24:06;;;;;;;;;;;1.60;99.90;;;;;;5092662;28;19931;-76
2023/04/03 00:26:33;;;;;;;;;;;1.60;99.90;;;;;;5093747;28;20010;-75
2023/04/03 00:29:00;;;;;;;;;;;1.70;99.90;;;;;;5088021;28;19934;-74
2023/04/03 00:31:28;;;;;;;;;;;1.70;99.90;;;;;;5088830;28;19924;-75
2023/04/03 00:33:54;;;;;;;;;;;1.60;99.90;;;;;;5087293;28;19928;-76
2023/04/03 00:36:21;;;;;;;;;;;1.60;99.90;;;;;;5090764;28;20018;-77
2023/04/03 00:38:48;;;;;;;;;;;1.60;99.90;;;;;;5092665;28;20035;-75
2023/04/03 00:41:15;;;;;;;;;;;1.50;99.90;;;;;;5091028;28;19928;-75
2023/04/03 00:43:41;;;;;;;;;;;1.60;99.90;;;;;;5089974;28;19924;-75
2023/04/03 00:46:08;;;;;;;;;;;1.70;99.90;;;;;;5086983;28;20028;-75
2023/04/03 00:48:38;;;;;;;;;;;1.80;99.90;;;;;;5095305;28;19931;-74
2023/04/03 00:51:07;;;;;;;;;;;1.80;99.90;;;;;;5089263;28;19928;-76
2023/04/03 00:53:35;;;;;;;;;;;1.70;99.90;;;;;;5087850;28;19924;-75
2023/04/03 00:56:02;;;;;;;;;;;1.70;99.90;;;;;;5086044;28;20341;-74
2023/04/03 00:58:33;;;;;;;;;;;1.70;99.90;;;;;;5089785;28;20015;-76
2023/04/03 01:01:00;;;;;;;;;;;1.70;99.90;;;;;;5090670;28;19923;-75
2023/04/03 01:03:27;;;;;;;;;;;1.70;99.90;;;;;;5087970;28;19974;-75
2023/04/03 01:05:55;;;;;;;;;;;1.70;99.90;;;;;;5089974;28;19924;-74
2023/04/03 01:08:22;;;;;;;;;;;1.60;99.90;;;;;;5088457;28;20305;-75
2023/04/03 01:10:48;;;;;;;;;;;1.60;99.90;;;;;;5090670;28;19924;-76
2023/04/03 01:13:19;;;;;;;;;;;1.70;99.90;;;;;;5085789;28;20011;-75
2023/04/03 01:15:46;;;;;;;;;;;1.60;99.90;;;;;;5091933;28;19924;-75
2023/04/03 01:18:12;;;;;;;;;;;1.60;99.90;;;;;;5089356;28;19966;-76
2023/04/03 01:21:00;;;;;;;;;;;1.60;99.90;;;;;;5083003;28;19925;-77
2023/04/03 01:23:33;;;;;;;;;;;1.60;99.90;;;;;;5061156;28;19924;-74
2023/04/03 01:26:00;;;;;;;;;;;1.70;99.90;;;;;;5084962;28;19956;-73
2023/04/03 01:28:28;;;;;;;;;;;1.70;99.90;;;;;;5088164;28;19930;-75
2023/04/03 01:30:59;;;;;;;;;;;1.70;99.90;;;;;;5088266;28;20003;-75
2023/04/03 01:33:27;;;;;;;;;;;1.60;99.90;;;;;;5087658;28;19924;-75
2023/04/03 01:35:54;;;;;;;;;;;1.60;99.90;;;;;;5095392;28;20022;-76
2023/04/03 01:38:21;;;;;;;;;;;1.60;99.90;;;;;;5089567;28;19924;-76
2023/04/03 01:40:48;;;;;;;;;;;1.60;99.90;;;;;;5086721;28;19924;-74
2023/04/03 01:43:15;;;;;;;;;;;1.60;99.90;;;;;;5086288;28;20029;-74
2023/04/03 01:45:41;;;;;;;;;;;1.60;99.90;;;;;;5090840;28;19935;-77
2023/04/03 01:48:08;;;;;;;;;;;1.60;99.90;;;;;;5084666;28;19928;-75
2023/04/03 01:50:36;;;;;;;;;;;1.60;99.90;;;;;;5083307;28;19924;-76
2023/04/03 01:53:03;;;;;;;;;;;1.60;99.90;;;;;;5083683;28;19931;-75
2023/04/03 01:55:30;;;;;;;;;;;1.60;99.90;;;;;;5086683;28;19924;-74
2023/04/03 01:57:56;;;;;;;;;;;1.60;99.90;;;;;;5091208;28;19923;-75
2023/04/03 02:00:23;;;;;;;;;;;1.60;99.90;;;;;;5085889;28;20011;-74
2023/04/03 02:02:50;;;;;;;;;;;1.60;99.90;;;;;;5084746;28;19924;-74
2023/04/03 02:05:17;;;;;;;;;;;1.60;99.90;;;;;;5088615;28;19954;-72
2023/04/03 02:07:45;;;;;;;;;;;1.50;99.90;;;;;;5092285;28;19924;-75
2023/04/03 02:10:12;;;;;;;;;;;1.60;99.90;;;;;;5096024;28;19924;-74
2023/04/03 02:12:39;;;;;;;;;;;1.60;99.90;;;;;;5101076;28;20021;-74
2023/04/03 02:15:06;;;;;;;;;;;1.60;99.90;;;;;;5089744;28;19942;-75
2023/04/03 02:17:33;;;;;;;;;;;1.60;99.90;;;;;;5078830;28;19924;-75
2023/04/03 02:20:00;;;;;;;;;;;1.60;99.90;;;;;;5089104;28;19924;-75
2023/04/03 02:22:26;;;;;;;;;;;1.60;99.90;;;;;;5089382;28;20010;-74
2023/04/03 02:24:54;;;;;;;;;;;1.60;99.90;;;;;;5091564;28;20345;-73
2023/04/03 02:27:21;;;;;;;;;;;1.60;99.90;;;;;;5087711;28;20356;-76
2023/04/03 02:29:48;;;;;;;;;;;1.60;99.90;;;;;;5101827;28;19963;-75
2023/04/03 02:32:15;;;;;;;;;;;1.60;99.90;;;;;;5100808;28;20477;-75
2023/04/03 02:34:42;;;;;;;;;;;1.60;99.90;;;;;;5092351;28;19924;-75
2023/04/03 02:37:08;;;;;;;;;;;1.50;99.90;;;;;;5085257;28;19924;-75
2023/04/03 02:39:35;;;;;;;;;;;1.50;99.90;;;;;;5087902;28;19977;-75
2023/04/03 02:42:03;;;;;;;;;;;1.50;99.90;;;;;;5088665;28;20446;-73
2023/04/03 02:44:30;;;;;;;;;;;1.50;99.90;;;;;;5086439;28;20348;-74
2023/04/03 02:46:57;;;;;;;;;;;1.50;99.90;;;;;;5091659;28;20310;-74
2023/04/03 02:49:23;;;;;;;;;;;1.50;99.90;;;;;;5091107;28;19924;-74
2023/04/03 02:51:50;;;;;;;;;;;1.50;99.90;;;;;;5097334;28;19924;-74
2023/04/03 02:54:17;;;;;;;;;;;1.40;99.90;;;;;;5092863;28;20018;-75
2023/04/03 02:56:44;;;;;;;;;;;1.40;99.90;;;;;;5086837;28;19924;-73
2023/04/03 02:59:12;;;;;;;;;;;1.30;99.90;;;;;;5090693;28;20363;-74
2023/04/03 03:01:38;;;;;;;;;;;1.40;99.90;;;;;;5094578;28;19928;-73
2023/04/03 03:04:05;;;;;;;;;;;1.40;99.90;;;;;;5091686;28;20373;-73
2023/04/03 03:06:32;;;;;;;;;;;1.30;99.90;;;;;;5091961;28;19924;-75
2023/04/03 03:08:59;;;;;;;;;;;1.40;99.90;;;;;;5095422;28;19932;-73
2023/04/03 03:11:26;;;;;;;;;;;1.30;99.90;;;;;;5089616;28;20032;-74
2023/04/03 03:13:52;;;;;;;;;;;1.30;99.90;;;;;;5090256;28;19939;-76
2023/04/03 03:16:20;;;;;;;;;;;1.30;99.90;;;;;;5088808;28;19924;-74
2023/04/03 03:18:47;;;;;;;;;;;1.20;99.90;;;;;;5093828;28;20877;-75
2023/04/03 03:21:14;;;;;;;;;;;1.20;99.90;;;;;;5087368;28;20362;-74
2023/04/03 03:23:41;;;;;;;;;;;1.20;99.90;;;;;;5091033;28;19929;-75
2023/04/03 03:26:08;;;;;;;;;;;1.10;99.90;;;;;;5091677;28;20415;-75
2023/04/03 03:28:36;;;;;;;;;;;1.10;99.90;;;;;;5089624;28;19934;-75
2023/04/03 03:31:05;;;;;;;;;;;1.20;99.90;;;;;;5090017;28;19932;-75
2023/04/03 03:33:34;;;;;;;;;;;1.20;99.90;;;;;;5090234;28;19928;-72
2023/04/03 03:36:01;;;;;;;;;;;1.10;99.90;;;;;;5090246;28;19942;-73
2023/04/03 03:38:27;;;;;;;;;;;1.10;99.90;;;;;;5090914;28;19924;-73
2023/04/03 03:40:57;;;;;;;;;;;1.10;99.90;;;;;;5091685;28;20318;-74
2023/04/03 03:43:24;;;;;;;;;;;1.10;99.90;;;;;;5096975;28;20422;-74
2023/04/03 03:45:51;;;;;;;;;;;1.10;99.90;;;;;;5092125;28;20391;-74
2023/04/03 03:48:18;;;;;;;;;;;1.10;99.90;;;;;;5091226;28;19924;-74
2023/04/03 03:50:46;;;;;;;;;;;1.00;99.90;;;;;;5110102;28;19924;-73
2023/04/03 03:53:12;;;;;;;;;;;1.00;99.90;;;;;;5101944;28;19924;-74
2023/04/03 03:55:39;;;;;;;;;;;0.90;99.90;;;;;;5093183;28;20019;-75
2023/04/03 03:58:06;;;;;;;;;;;0.90;99.90;;;;;;5099961;28;19931;-75
2023/04/03 04:00:33;;;;;;;;;;;0.90;99.90;;;;;;5092695;28;19947;-75
2023/04/03 04:03:00;;;;;;;;;;;0.80;99.90;;;;;;5090794;28;19924;-75
2023/04/03 04:05:27;;;;;;;;;;;0.80;99.90;;;;;;5093619;28;19927;-76
2023/04/03 04:07:55;;;;;;;;;;;0.80;99.90;;;;;;5092323;28;19924;-74
2023/04/03 04:10:22;;;;;;;;;;;0.80;99.90;;;;;;5089418;28;19928;-76
2023/04/03 04:12:51;;;;;;;;;;;0.80;99.90;;;;;;5091363;28;19932;-75
2023/04/03 04:15:17;;;;;;;;;;;0.70;99.90;;;;;;5096940;28;19962;-74
2023/04/03 04:17:44;;;;;;;;;;;0.80;99.90;;;;;;5097558;28;19997;-75
2023/04/03 04:20:11;;;;;;;;;;;0.90;99.90;;;;;;5095952;28;19924;-76
2023/04/03 04:22:38;;;;;;;;;;;0.90;99.90;;;;;;5102590;28;19924;-74
2023/04/03 04:25:07;;;;;;;;;;;0.80;99.90;;;;;;5099650;28;20401;-74
2023/04/03 04:27:33;;;;;;;;;;;0.90;99.90;;;;;;5089952;28;19924;-74
2023/04/03 04:30:00;;;;;;;;;;;0.90;99.90;;;;;;5092961;28;20007;-75
2023/04/03 04:32:27;;;;;;;;;;;0.90;99.90;;;;;;5091255;28;20333;-75
2023/04/03 04:34:54;;;;;;;;;;;0.90;99.90;;;;;;5089121;28;19924;-75
2023/04/03 04:37:20;;;;;;;;;;;0.90;99.90;;;;;;5098013;28;20018;-74
2023/04/03 04:39:47;;;;;;;;;;;0.90;99.90;;;;;;5094091;28;19928;-77
2023/04/03 04:42:15;;;;;;;;;;;0.90;99.90;;;;;;5083730;28;20425;-75
2023/04/03 04:44:42;;;;;;;;;;;0.80;99.90;;;;;;5085422;28;19927;-76
2023/04/03 04:47:08;;;;;;;;;;;0.80;99.90;;;;;;5087506;28;19924;-75
2023/04/03 04:49:35;;;;;;;;;;;0.80;99.90;;;;;;5086930;28;20443;-76
2023/04/03 04:52:04;;;;;;;;;;;0.80;99.90;;;;;;5090939;28;19977;-74
2023/04/03 04:54:30;;;;;;;;;;;0.80;99.90;;;;;;5092566;28;20043;-76
2023/04/03 04:56:57;;;;;;;;;;;0.90;99.90;;;;;;5088345;28;19935;-76
2023/04/03 04:59:25;;;;;;;;;;;0.80;99.90;;;;;;5087800;28;19979;-76
2023/04/03 05:01:52;;;;;;;;;;;0.70;99.90;;;;;;5079798;28;19924;-77
2023/04/03 05:04:19;;;;;;;;;;;0.70;99.90;;;;;;5091073;28;19924;-77
2023/04/03 05:06:45;;;;;;;;;;;0.70;99.90;;;;;;5087349;28;19923;-75
2023/04/03 05:09:12;;;;;;;;;;;0.70;99.90;;;;;;5088514;28;21634;-78
2023/04/03 05:11:39;;;;;;;;;;;0.70;99.90;;;;;;5087860;28;19954;-77
2023/04/03 05:14:06;;;;;;;;;;;0.60;99.90;;;;;;5089364;28;20015;-77
2023/04/03 05:16:34;;;;;;;;;;;0.70;99.90;;;;;;5093856;28;20642;-75
2023/04/03 05:19:01;;;;;;;;;;;0.60;99.90;;;;;;5091881;28;19951;-77
2023/04/03 05:21:31;;;;;;;;;;;0.60;99.90;;;;;;5089409;28;19932;-77
2023/04/03 05:23:58;;;;;;;;;;;0.70;99.90;;;;;;5089920;28;20413;-76
2023/04/03 05:26:26;;;;;;;;;;;0.60;99.90;;;;;;5091339;28;19932;-77
2023/04/03 05:28:53;;;;;;;;;;;0.70;99.90;;;;;;5090826;28;20026;-76
2023/04/03 05:31:19;;;;;;;;;;;0.70;99.90;;;;;;5085694;28;20004;-77
2023/04/03 05:33:47;;;;;;;;;;;0.70;99.90;;;;;;5089647;28;20027;-77
2023/04/03 05:36:14;;;;;;;;;;;0.70;99.90;;;;;;5098493;28;20048;-77
2023/04/03 05:38:41;;;;;;;;;;;0.60;99.90;;;;;;5093000;28;20035;-76
2023/04/03 05:41:07;;;;;;;;;;;0.60;99.90;;;;;;5089766;28;20002;-77
2023/04/03 05:43:37;;;;;;;;;;;0.70;99.90;;;;;;5086629;28;20651;-78
2023/04/03 05:46:04;;;;;;;;;;;0.70;99.90;;;;;;5084388;28;19932;-77
2023/04/03 05:48:30;;;;;;;;;;;0.70;99.90;;;;;;5093597;28;20019;-75
2023/04/03 05:50:59;;;;;;;;;;;0.70;99.90;;;;;;5091842;28;20386;-77
2023/04/03 05:53:27;;;;;;;;;;;0.60;99.90;;;;;;5087775;28;19971;-77
2023/04/03 05:55:54;;;;;;;;;;;0.60;99.90;;;;;;5089278;28;19928;-76
2023/04/03 05:58:20;;;;;;;;;;;0.60;99.90;;;;;;5084187;28;19932;-77
2023/04/03 06:00:48;;;;;;;;;;;0.80;99.90;;;;;;5088094;28;20468;-78
2023/04/03 06:03:15;;;;;;;;;;;0.90;99.90;;;;;;5088491;28;20437;-78
2023/04/03 06:05:41;;;;;;;;;;;1.00;99.90;;;;;;5101556;28;19931;-77
2023/04/03 06:08:09;;;;;;;;;;;1.10;99.90;;;;;;5087680;28;20043;-80
2023/04/03 06:10:36;;;;;;;;;;;1.20;99.90;;;;;;5086913;28;20018;-79
2023/04/03 06:13:03;;;;;;;;;;;1.30;99.90;;;;;;5092035;28;20399;-78
2023/04/03 06:15:30;;;;;;;;;;;1.30;99.90;;;;;;5093342;28;20386;-76
2023/04/03 06:17:57;;;;;;;;;;;1.40;99.90;;;;;;5092793;28;19978;-77
2023/04/03 06:20:24;;;;;;;;;;;1.50;99.90;;;;;;5090379;28;19924;-76
2023/04/03 06:22:51;;;;;;;;;;;1.60;99.90;;;;;;5089854;28;20370;-78
2023/04/03 06:25:19;;;;;;;;;;;1.70;99.90;;;;;;5094541;28;19931;-77
2023/04/03 06:27:46;;;;;;;;;;;1.70;99.90;;;;;;5092961;28;19924;-75
2023/04/03 06:30:13;;;;;;;;;;;1.90;99.90;;;;;;5092240;28;19924;-75
2023/04/03 06:32:40;;;;;;;;;;;1.90;99.90;;;;;;5093495;28;20454;-76
2023/04/03 06:35:08;;;;;;;;;;;2.00;99.90;;;;;;5090351;28;19989;-76
2023/04/03 06:37:35;;;;;;;;;;;2.00;99.90;;;;;;5094463;28;19924;-76
2023/04/03 06:40:02;;;;;;;;;;;2.10;99.90;;;;;;5093505;28;20280;-77
2023/04/03 06:42:30;;;;;;;;;;;2.20;99.90;;;;;;5084955;28;20306;-75
2023/04/03 06:44:57;;;;;;;;;;;2.30;99.90;;;;;;5091050;28;19924;-74
2023/04/03 06:47:24;;;;;;;;;;;2.40;99.90;;;;;;5092079;28;19924;-77
2023/04/03 06:49:51;;;;;;;;;;;2.40;99.90;;;;;;5085366;28;19924;-76
2023/04/03 06:52:17;;;;;;;;;;;2.50;99.90;;;;;;5085091;28;19976;-71
2023/04/03 06:54:44;;;;;;;;;;;2.50;99.90;;;;;;5086984;28;20030;-73
2023/04/03 06:57:11;;;;;;;;;;;2.60;99.90;;;;;;5080966;28;20387;-72
2023/04/03 06:59:40;;;;;;;;;;;2.70;99.90;;;;;;5093205;28;20410;-73
2023/04/03 07:02:06;;;;;;;;;;;2.70;99.90;;;;;;5086319;28;19931;-78
2023/04/03 07:04:33;;;;;;;;;;;2.80;99.90;;;;;;5082986;28;19924;-76
2023/04/03 07:07:00;;;;;;;;;;;2.90;99.90;;;;;;5091262;28;19924;-77
2023/04/03 07:09:27;;;;;;;;;;;2.90;99.90;;;;;;5088136;28;22431;-80
2023/04/03 07:11:54;;;;;;;;;;;2.90;99.90;;;;;;5104854;28;20019;-78
2023/04/03 07:14:21;;;;;;;;;;;3.00;99.90;;;;;;5084712;28;20422;-79
2023/04/03 07:16:49;;;;;;;;;;;2.90;99.90;;;;;;5085935;28;19924;-80
2023/04/03 07:19:17;;;;;;;;;;;3.00;99.90;;;;;;5086839;28;19933;-79
2023/04/03 07:21:44;;;;;;;;;;;3.10;99.90;;;;;;5083956;28;19928;-80
2023/04/03 07:24:11;;;;;;;;;;;3.30;99.90;;;;;;5093078;28;19931;-77
2023/04/03 07:26:38;;;;;;;;;;;3.40;99.90;;;;;;5098896;28;19954;-75
2023/04/03 07:29:05;;;;;;;;;;;3.60;99.90;;;;;;5086486;28;20437;-75
2023/04/03 07:31:31;;;;;;;;;;;3.80;99.90;;;;;;5085585;28;20407;-79
2023/04/03 07:34:00;;;;;;;;;;;4.00;99.90;;;;;;5087605;28;19928;-77
2023/04/03 07:36:27;;;;;;;;;;;4.10;99.90;;;;;;5083104;28;19928;-75
2023/04/03 07:38:56;;;;;;;;;;;4.20;99.90;;;;;;5088355;28;19928;-78
2023/04/03 07:41:22;;;;;;;;;;;4.50;99.90;;;;;;5089865;28;20413;-77
2023/04/03 07:43:50;;;;;;;;;;;5.30;99.90;;;;;;5087794;28;20022;-76
2023/04/03 07:46:18;;;;;;;;;;;5.90;99.90;;;;;;5086371;28;19928;-78
2023/04/03 07:48:45;;;;;;;;;;;6.60;99.90;;;;;;5081892;28;19931;-79
2023/04/03 07:51:14;;;;;;;;;;;7.20;99.90;;;;;;5089919;28;19959;-77
2023/04/03 07:53:41;;;;;;;;;;;7.20;99.80;;;;;;5086141;28;20426;-80
2023/04/03 07:56:09;;;;;;;;;;;7.50;99.90;;;;;;5094997;28;20019;-77
2023/04/03 07:58:36;;;;;;;;;;;8.00;97.60;;;;;;5080472;28;19932;-76
2023/04/03 08:01:03;;;;;;;;;;;7.80;98.40;;;;;;5081251;28;19924;-75
2023/04/03 08:03:30;;;;;;;;;;;8.00;96.00;;;;;;5084148;28;19977;-78
2023/04/03 08:06:03;;;;;;;;;;;8.00;94.90;;;;;;5089918;28;19931;-79
2023/04/03 08:08:32;;;;;;;;;;;8.60;94.30;;;;;;5092261;28;19924;-76
2023/04/03 08:11:00;;;;;;;;;;;9.30;91.40;;;;;;5086073;28;20023;-75
2023/04/03 08:13:27;;;;;;;;;;;9.20;91.00;;;;;;5087405;28;19986;-78
2023/04/03 08:15:54;;;;;;;;;;;8.80;91.30;;;;;;5089591;28;19932;-77
2023/04/03 08:18:24;;;;;;;;;;;9.10;90.40;;;;;;5095269;28;19927;-76
2023/04/03 08:20:51;;;;;;;;;;;8.30;93.00;;;;;;5090840;28;19964;-78
2023/04/03 08:23:18;;;;;;;;;;;8.30;93.50;;;;;;5090957;28;20015;-77
2023/04/03 08:25:47;;;;;;;;;;;8.40;96.70;;;;;;5089575;28;20011;-76
2023/04/03 08:28:17;;;;;;;;;;;8.30;93.20;;;;;;5077033;28;19951;-77
2023/04/03 08:30:44;;;;;;;;;;;7.50;94.30;;;;;;5086341;28;19924;-79
2023/04/03 08:33:11;;;;;;;;;;;7.50;95.80;;;;;;5079756;28;19946;-78
2023/04/03 08:35:41;;;;;;;;;;;7.80;96.50;;;;;;5091711;28;19927;-77
2023/04/03 08:38:08;;;;;;;;;;;7.60;95.50;;;;;;5081629;28;19989;-77
2023/04/03 08:40:36;;;;;;;;;;;7.90;95.00;;;;;;5076859;28;19928;-81
2023/04/03 08:43:14;;;;;;;;;;;7.70;95.20;;;;;;5089918;28;19932;-78
2023/04/03 08:45:45;;;;;;;;;;;7.60;95.40;;;;;;5082101;28;20022;-78
2023/04/03 08:48:14;;;;;;;;;;;8.30;94.00;;;;;;5086545;28;20176;-77
2023/04/03 08:50:43;;;;;;;;;;;8.20;93.60;;;;;;5086821;28;20027;-78
2023/04/03 08:53:13;;;;;;;;;;;8.40;92.70;;;;;;5093912;28;19928;-77
2023/04/03 08:55:41;;;;;;;;;;;8.40;94.50;;;;;;5085767;28;20018;-76
2023/04/03 08:58:11;;;;;;;;;;;8.60;93.20;;;;;;5091706;28;19967;-78
2023/04/03 09:00:44;;;;;;;;;;;8.20;92.80;;;;;;5085091;28;19954;-77
2023/04/03 09:03:13;;;;;;;;;;;8.20;93.90;;;;;;5093776;28;19966;-78
2023/04/03 09:05:42;;;;;;;;;;;9.00;91.70;;;;;;5094098;28;19932;-77
2023/04/03 09:08:14;;;;;;;;;;;9.30;86.90;;;;;;5088125;28;20358;-77
2023/04/03 09:10:41;;;;;;;;;;;8.90;88.00;;;;;;5086899;28;20048;-75
2023/04/03 09:13:22;;;;;;;;;;;8.50;90.30;;;;;;5088944;28;20463;-79
2023/04/03 09:15:50;;;;;;;;;;;8.30;90.00;;;;;;5084329;28;20549;-77
2023/04/03 09:18:19;;;;;;;;;;;8.00;90.00;;;;;;5090002;28;20352;-75
2023/04/03 09:20:47;;;;;;;;;;;9.00;90.50;;;;;;5087751;28;19955;-78
2023/04/03 09:23:18;;;;;;;;;;;8.30;90.00;;;;;;5083335;28;19924;-78
2023/04/03 09:25:45;;;;;;;;;;;8.80;91.40;;;;;;5086192;28;20391;-76
2023/04/03 09:28:11;;;;;;;;;;;8.60;89.00;;;;;;5089673;28;20017;-77
2023/04/03 09:30:38;;;;;;;;;;;8.70;89.30;;;;;;5085791;28;19928;-78
2023/04/03 09:33:07;;;;;;;;;;;9.00;86.60;;;;;;5086135;28;19949;-76
2023/04/03 09:35:35;;;;;;;;;;;8.40;87.30;;;;;;5092951;28;20408;-77
2023/04/03 09:38:15;;;;;;;;;;;8.70;84.90;;;;;;5087114;28;20328;-78
2023/04/03 09:40:42;;;;;;;;;;;8.30;85.70;;;;;;5090098;28;20039;-77
2023/04/03 09:43:27;;;;;;;;;;;8.00;87.20;;;;;;5089829;28;19970;-76
2023/04/03 09:45:57;;;;;;;;;;;8.00;87.90;;;;;;5081127;28;20398;-77
2023/04/03 09:48:27;;;;;;;;;;;8.20;84.60;;;;;;5095202;28;20447;-77
2023/04/03 09:51:01;;;;;;;;;;;8.60;81.30;;;;;;5087327;28;20351;-78
2023/04/03 09:53:36;;;;;;;;;;;8.50;83.50;;;;;;5095762;28;19924;-76
2023/04/03 09:56:05;;;;;;;;;;;8.90;81.60;;;;;;5083209;28;20439;-77
2023/04/03 09:58:33;;;;;;;;;;;8.20;78.60;;;;;;5086819;28;19966;-75
2023/04/03 10:01:01;;;;;;;;;;;8.30;82.80;;;;;;5089225;28;19924;-77
2023/04/03 10:03:30;;;;;;;;;;;8.00;83.70;;;;;;5088734;28;19924;-76
2023/04/03 10:06:00;;;;;;;;;;;7.60;83.50;;;;;;5083989;28;19931;-76
2023/04/03 10:08:29;;;;;;;;;;;7.80;85.80;;;;;;5083696;28;20417;-77
2023/04/03 10:11:12;;;;;;;;;;;7.80;91.10;;;;;;5083950;28;19931;-76
2023/04/03 10:13:50;;;;;;;;;;;7.80;83.80;;;;;;5088915;28;19932;-76
2023/04/03 10:16:18;;;;;;;;;;;7.80;85.50;;;;;;5097018;28;20015;-77
2023/04/03 10:18:48;;;;;;;;;;;7.70;82.70;;;;;;5076010;28;22436;-76
2023/04/03 10:21:16;;;;;;;;;;;7.80;83.70;;;;;;5087812;28;20020;-80
2023/04/03 10:23:45;;;;;;;;;;;7.80;80.90;;;;;;5091675;28;20418;-76
2023/04/03 10:26:17;;;;;;;;;;;8.00;77.80;;;;;;5081570;28;19928;-76
2023/04/03 10:28:47;;;;;;;;;;;7.70;75.70;;;;;;5089856;28;19928;-77
2023/04/03 10:31:16;;;;;;;;;;;7.70;75.20;;;;;;5078745;28;19971;-77
2023/04/03 10:33:53;;;;;;;;;;;8.00;79.80;;;;;;5089207;28;20015;-76
2023/04/03 10:36:25;;;;;;;;;;;8.10;79.00;;;;;;5078863;28;19955;-77
2023/04/03 10:38:57;;;;;;;;;;;7.80;73.40;;;;;;5075780;28;19924;-76
2023/04/03 10:41:26;;;;;;;;;;;7.70;71.20;;;;;;5077939;28;19974;-75
2023/04/03 10:43:59;;;;;;;;;;;7.90;70.10;;;;;;5075826;28;19932;-76
2023/04/03 10:46:29;;;;;;;;;;;8.10;70.90;;;;;;5084152;28;20461;-78
2023/04/03 10:49:06;;;;;;;;;;;8.00;73.50;;;;;;5085453;28;19928;-75
2023/04/03 10:51:37;;;;;;;;;;;7.90;72.10;;;;;;5086698;28;19928;-77
2023/04/03 10:54:09;;;;;;;;;;;8.10;75.30;;;;;;5090432;28;20344;-75
2023/04/03 10:56:38;;;;;;;;;;;8.40;65.60;;;;;;5086537;28;20298;-77
2023/04/03 10:59:11;;;;;;;;;;;8.30;58.80;;;;;;5085717;28;20055;-77
2023/04/03 11:01:40;;;;;;;;;;;8.30;59.90;;;;;;5099319;28;20387;-77
2023/04/03 11:04:10;;;;;;;;;;;8.20;62.50;;;;;;5089232;28;19931;-76
2023/04/03 11:06:39;;;;;;;;;;;8.30;68.60;;;;;;5083683;28;19934;-76
2023/04/03 11:09:06;;;;;;;;;;;;;;;;;;5095855;28;19934;-76
2023/04/03 11:11:35;;;;;;;;;;;;;;;;;;5091414;28;19924;-78
2023/04/03 11:14:02;;;;;;;;;;;;;;;;;;5084850;28;20003;-76
2023/04/03 11:16:29;;;;;;;;;;;;;;;;;;5096887;28;19933;-79
2023/04/03 11:18:56;;;;;;;;;;;;;;;;;;5091113;28;19932;-73
2023/04/03 11:21:23;;;;;;;;;;;;;;;;;;5094478;28;19924;-77
2023/04/03 11:23:50;;;;;;;;;;;;;;;;;;5092298;28;20390;-78
2023/04/03 11:26:17;;;;;;;;;;;;;;;;;;5097691;28;20027;-77
2023/04/03 11:28:44;;;;;;;;;;;;;;;;;;5091847;28;19924;-77
2023/04/03 11:31:11;;;;;;;;;;;;;;;;;;5091835;28;19930;-77
2023/04/03 11:33:38;;;;;;;;;;;;;;;;;;5090493;28;20014;-73
2023/04/03 11:36:05;;;;;;;;;;;;;;;;;;5099412;28;19977;-78
2023/04/03 11:38:34;;;;;;;;;;;;;;;;;;5095537;28;19928;-78
2023/04/03 11:41:02;;;;;;;;;;;;;;;;;;5095048;28;19924;-77
2023/04/03 11:43:29;;;;;;;;;;;;;;;;;;5086361;28;20006;-77
2023/04/03 11:45:58;;;;;;;;;;;;;;;;;;5087194;28;19924;-79
2023/04/03 11:48:25;;;;;;;;;;;;;;;;;;5087330;28;20007;-77
2023/04/03 11:50:52;;;;;;;;;;;;;;;;;;5090418;28;19924;-74
2023/04/03 11:53:32;;;;;;;;;;;10.60;68.10;;;;;;5103611;28;20624;-75
2023/04/03 11:56:00;;;;;;;;;;;9.00;55.40;;;;;;5090399;28;20402;-79
2023/04/03 11:58:27;;;;;;;;;;;;;;;;;;5087830;28;20393;-78
2023/04/03 12:00:54;;;;;;;;;;;;;;;;;;5090880;28;19977;-81
2023/04/03 12:03:55;;;;;;;;;;;8.60;52.80;;;;;;5089962;28;19944;-78
2023/04/03 12:06:57;;;;;;;;;;;8.60;50.40;;;;;;5096722;28;20036;-77
2023/04/03 12:09:28;;;;;;;;;;;8.80;51.50;;;;;;5087435;28;19970;-75
2023/04/03 12:11:56;;;;;;;;;;;8.70;49.80;;;;;;5094673;28;20362;-75
2023/04/03 12:14:24;;;;;;;;;;;8.60;49.10;;;;;;5100574;28;19997;-77
2023/04/03 12:16:51;;;;;;;;;;;8.90;48.30;;;;;;5086625;28;19924;-76
2023/04/03 12:19:32;;;;;;;;;;;9.00;47.90;;;;;;5087520;28;19924;-76
2023/04/03 12:22:11;;;;;;;;;;;9.20;51.40;;;;;;5083998;28;20007;-75
2023/04/03 12:24:40;;;;;;;;;;;9.10;47.10;;;;;;5086343;28;19925;-79
2023/04/03 12:27:17;;;;;;;;;;;9.30;49.60;;;;;;5085066;28;19924;-76
2023/04/03 12:29:47;;;;;;;;;;;9.50;50.50;;;;;;5089624;28;20018;-78
2023/04/03 12:32:19;;;;;;;;;;;9.00;48.20;;;;;;5094269;28;19974;-77
2023/04/03 12:35:00;;;;;;;;;;;9.30;47.10;;;;;;5090591;28;20007;-79
2023/04/03 12:37:52;;;;;;;;;;;9.20;46.70;;;;;;5088737;28;19928;-76
2023/04/03 12:40:25;;;;;;;;;;;9.10;45.30;;;;;;5081180;28;19924;-76
2023/04/03 12:43:10;;;;;;;;;;;8.90;45.80;;;;;;5092334;28;20012;-77
2023/04/03 12:45:37;;;;;;;;;;;;;;;;;;5091404;28;20003;-80
2023/04/03 12:48:05;;;;;;;;;;;9.30;44.30;;;;;;5083866;28;19975;-78
2023/04/03 12:50:33;;;;;;;;;;;9.30;44.40;;;;;;5083564;28;19935;-76
2023/04/03 12:53:01;;;;;;;;;;;9.50;45.00;;;;;;5083946;28;19932;-79
2023/04/03 12:55:29;;;;;;;;;;;9.20;44.70;;;;;;5081689;28;19974;-77
2023/04/03 12:57:56;;;;;;;;;;;9.30;45.50;;;;;;5082046;28;20048;-78
2023/04/03 13:00:28;;;;;;;;;;;8.80;41.80;;;;;;5086456;28;19942;-76
2023/04/03 13:02:55;;;;;;;;;;;9.10;45.20;;;;;;5079935;28;19967;-77
2023/04/03 13:05:23;;;;;;;;;;;9.40;45.10;;;;;;5079841;28;20027;-74
2023/04/03 13:07:50;;;;;;;;;;;9.10;44.10;;;;;;5088707;28;19978;-79
2023/04/03 13:10:19;;;;;;;;;;;9.50;45.40;;;;;;5084915;28;19924;-73
2023/04/03 13:12:49;;;;;;;;;;;9.70;44.60;;;;;;5086219;28;19924;-75
2023/04/03 13:15:18;;;;;;;;;;;9.10;38.60;;;;;;5086927;28;20353;-76
2023/04/03 13:17:45;;;;;;;;;;;9.30;43.30;;;;;;5084179;28;20400;-77
2023/04/03 13:20:13;;;;;;;;;;;9.40;40.20;;;;;;5084162;28;20353;-79
2023/04/03 13:22:43;;;;;;;;;;;9.60;40.20;;;;;;5085789;28;20019;-79
2023/04/03 13:25:11;;;;;;;;;;;9.80;42.50;;;;;;5090858;28;19991;-77
2023/04/03 13:27:39;;;;;;;;;;;9.30;40.70;;;;;;5081100;28;19930;-77
2023/04/03 13:30:18;;;;;;;;;;;9.70;42.30;;;;;;5076897;28;19928;-78
2023/04/03 13:32:45;;;;;;;;;;;9.90;39.50;;;;;;5081669;28;20302;-77
2023/04/03 13:35:33;;;;;;;;;;;9.80;39.00;;;;;;5080978;28;19925;-79
2023/04/03 13:38:00;;;;;;;;;;;10.00;42.50;;;;;;5085890;28;19939;-80
2023/04/03 13:40:27;;;;;;;;;;;9.50;43.40;;;;;;5087459;28;19932;-78
2023/04/03 13:43:01;;;;;;;;;;;9.60;40.60;;;;;;5084886;28;20313;-78
2023/04/03 13:45:31;;;;;;;;;;;9.80;42.60;;;;;;5083516;28;19947;-74
2023/04/03 13:48:09;;;;;;;;;;;9.80;41.30;;;;;;5087589;28;19985;-73
2023/04/03 13:50:50;;;;;;;;;;;9.50;37.80;;;;;;5084339;28;19932;-77
2023/04/03 13:53:17;;;;;;;;;;;9.60;41.50;;;;;;5085506;28;20399;-78
2023/04/03 13:55:55;;;;;;;;;;;9.80;43.00;;;;;;5086260;28;19935;-75
2023/04/03 13:58:23;;;;;;;;;;;9.70;40.90;;;;;;5086000;28;20893;-79
2023/04/03 14:00:53;;;;;;;;;;;10.00;38.80;;;;;;5085578;28;19931;-80
2023/04/03 14:03:21;;;;;;;;;;;9.90;38.40;;;;;;5078256;28;19932;-80
2023/04/03 14:05:50;;;;;;;;;;;10.00;38.80;;;;;;5086439;28;20351;-76
2023/04/03 14:08:18;;;;;;;;;;;9.90;38.10;;;;;;5088683;28;20425;-76
2023/04/03 14:10:45;;;;;;;;;;;9.90;37.60;;;;;;5087807;28;20406;-74
2023/04/03 14:13:13;;;;;;;;;;;9.90;38.60;;;;;;5092162;28;20003;-76
2023/04/03 14:15:42;;;;;;;;;;;9.70;38.50;;;;;;5085466;28;21469;-77
2023/04/03 14:18:12;;;;;;;;;;;9.60;38.30;;;;;;5086180;28;19939;-77
2023/04/03 14:20:39;;;;;;;;;;;9.70;36.70;;;;;;5079505;28;19989;-76
2023/04/03 14:23:06;;;;;;;;;;;9.80;41.80;;;;;;5091581;28;19967;-76
2023/04/03 14:25:32;;;;;;;;;;;9.60;39.10;;;;;;5089930;28;20286;-75
2023/04/03 14:28:00;;;;;;;;;;;9.80;41.60;;;;;;5088629;28;20027;-76
2023/04/03 14:30:27;;;;;;;;;;;9.90;43.20;;;;;;5085887;28;20007;-75
2023/04/03 14:32:54;;;;;;;;;;;10.00;41.00;;;;;;5095890;28;19971;-78
2023/04/03 14:35:23;;;;;;;;;;;9.80;38.90;;;;;;5091557;28;19931;-77
2023/04/03 14:37:50;;;;;;;;;;;9.90;40.60;;;;;;5084717;28;19928;-79
2023/04/03 14:40:18;;;;;;;;;;;10.10;37.60;;;;;;5085047;28;20425;-74
2023/04/03 14:42:47;;;;;;;;;;;9.80;37.50;;;;;;5089657;28;20457;-74
2023/04/03 14:45:14;;;;;;;;;;;10.00;37.50;;;;;;5090749;28;21597;-75